Remsen, IA (51050)

3:19 PM CDT on July 31, 2014 (GMT -0500)
South of LeMars (KIALEMAR4) Elev 1250 ft | 42.72 °N, 96.16 °W | Change Station

Current weather conditions updated 6 minutes ago

Partly Cloudy
Partly Cloudy
73.4 °F
Feels Like 77 °F
N
4.3
Wind Variable Wind from SW

Today is forecast to be Cooler than yesterday.

Today
High -- | Low -- °F
--% Chance of Precip.
Yesterday
High -- | Low -- °F
Precip. -- in
6:14 AM 8:45 PM
Waxing Crescent, 20% visible
Pressure 30.09 in
Visibility 10.0 miles
Clouds Few 11000 ft
Heat Index 77 °F
Dew Point 59 °F
Humidity 60%
Rainfall 0.00 in
Snow Depth Not available.
UV 9 out of 12
Pollen 6.00 out of 12
Air Quality Not available.
Flu Activity Not available.
METAR KLRJ 311955Z AUTO 20007KT 10SM FEW110 22/16 A3009 RMK AO2

More Conditions Fewer Conditions

Pressure 30.09 in
Visibility 10.0 miles
Clouds Few 11000 ft
Heat Index 77 °F
Dew Point 59 °F
Humidity 60%
Rainfall 0.00 in
Snow Depth Not available.
UV 9 out of 12
Pollen 6.00 out of 12
Air Quality Not available.
Flu Activity Not available.
METAR KLRJ 311955Z AUTO 20007KT 10SM FEW110 22/16 A3009 RMK AO2

More Conditions Fewer Conditions

10-Day Weather Forecast

Almanac

Astronomy

Jul. 31, 2014 Rise Set
Actual Time 6:14 AM CDT 8:45 PM CDT
Civil Twilight 5:42 AM CDT 9:17 PM CDT
Nautical Twilight 5:01 AM CDT 9:57 PM CDT
Astronomical Twilight 4:16 AM CDT 10:42 PM CDT
Moon 10:50 AM CDT 10:50 PM CDT
Length of Visible Light 15h 35m
Length of Day
14h 31m
Tomorrow will be 2m 12s shorter.
Waxing Crescent, 20% of the Moon is Illuminated
Today
Waxing Crescent
Aug 3
First Quarter
Aug 10
Full
Aug 17
Last Quarter
Aug 25
New

Today's Extremes

State Highs State Lows

Community

WunderPhotos

Upload Photos

1,739,446 photos uploaded!

Nearby

Snow Depth

Station Depth Elevation
No new snow has been reported.

Earthquake Activity

City Distance Mag. Time & Date
No recent earthquake activity has been reported nearby.
Minimum magnitude displayed is 2.5.

Coastal Water Temperatures

Place Temperature
No Stations Reporting

Nearby Weather Stations

Station Location Temp. Heat Index Dew Point Humidity Wind Precip. Elev Updated Type
NW Le Mars, Le Mars, IA 86.2 °F 83 °F 122 °F - SE  at  0.0 mph 0.00 in / hr 1280 ft 3:15 PM CDT Normal
South of LeMars, LeMars, IA 73.4 °F 77 °F 59 °F 60% SW  at  4.3 mph - / hr 1250 ft 3:13 PM CDT Normal
SSW Union, Kingsley, IA 69.6 °F - 58 °F 67% SSW  at  4.0 mph 0.00 in / hr 1368 ft 3:10 PM CDT Normal
Sioux Center, Sioux Center, IA 79.5 °F 81 °F 61 °F 53% SSW  at  4.0 mph 0.00 in / hr 1411 ft 3:15 PM CDT Normal
Sioux Center IA, Sioux Center, IA 81.2 °F 82 °F 61 °F 51% SSW  at  6.0 mph 0.00 in / hr 1470 ft 3:15 PM CDT Normal
MesoWest HOSPER , Hospers, IA 82 °F 80 °F - - North  at  - 0.00 in / hr 1375 ft 1:40 PM CDT MADIS

Show More Stations Show Fewer Stations